Terminal Aerodrome Forecast
Issued by NWS Cleveland, OH

Home | Current Version | Previous Version | Graphics & Text | Print | Product List | Glossary Off
Versions: 1 2 3 4 5 6 7 8 9 10 11 12 13 14 15 16 17 18 19 20 21

817
FTUS41 KCLE 102341
TAFMFD
TAF
KMFD 102341Z 1100/1124 26015G22KT 2SM -SHSN OVC025
      TEMPO 1100/1103 3/4SM -SHSN OVC012
     FM110400 27010G18KT 4SM -SHSN OVC018
     FM110700 28008KT P6SM SCT035
     FM111100 28008KT P6SM VCSH BKN025
     FM111900 29008KT P6SM BKN035=

USA.gov is the U.S. government's official web portal to all federal, state and local government web resources and services.